createdAt,value
2023-03-06T00:01:50.433Z,63.50
2023-03-06T00:03:52.251Z,58.28
2023-03-06T00:05:54.968Z,50.67
2023-03-06T00:07:56.703Z,52.05
2023-03-06T00:09:58.123Z,49.75
2023-03-06T00:11:59.650Z,48.15
2023-03-06T00:14:01.179Z,50.45
2023-03-06T00:16:02.628Z,49.00
2023-03-06T00:18:05.931Z,52.42
2023-03-06T00:20:08.632Z,56.38
2023-03-06T00:22:13.788Z,61.47
2023-03-06T00:24:15.752Z,58.53
2023-03-06T00:26:17.339Z,51.22
2023-03-06T00:28:18.825Z,53.28
2023-03-06T00:30:22.895Z,56.10
2023-03-06T00:32:25.563Z,56.85
2023-03-06T00:34:26.968Z,54.05
2023-03-06T00:36:28.514Z,56.22
2023-03-06T00:38:30.011Z,50.10
2023-03-06T00:40:31.433Z,50.22
2023-03-06T00:42:33.008Z,56.15
2023-03-06T00:44:34.536Z,57.47
2023-03-06T00:46:35.965Z,51.90
2023-03-06T00:48:37.702Z,59.65
2023-03-06T00:50:39.222Z,50.53
2023-03-06T00:52:40.660Z,45.42
2023-03-06T00:54:42.335Z,55.28
2023-03-06T00:56:43.882Z,44.70
2023-03-06T00:58:45.610Z,52.63
2023-03-06T01:00:47.145Z,50.08
2023-03-06T01:02:48.655Z,49.78
2023-03-06T01:04:50.196Z,51.50
2023-03-06T01:06:52.053Z,51.08
2023-03-06T01:08:53.569Z,49.45
2023-03-06T01:10:55.008Z,49.47
2023-03-06T01:12:56.983Z,47.97
2023-03-06T01:14:58.612Z,47.08
2023-03-06T01:17:00.116Z,51.83
2023-03-06T01:19:03.421Z,51.13
2023-03-06T01:21:05.930Z,48.13
2023-03-06T01:23:07.367Z,52.67
2023-03-06T01:25:09.482Z,62.33
2023-03-06T01:27:11.025Z,61.15
2023-03-06T01:29:12.484Z,62.60
2023-03-06T01:31:14.009Z,83.03
2023-03-06T01:33:15.654Z,74.82
2023-03-06T01:35:17.281Z,88.03
2023-03-06T01:37:19.018Z,91.30
2023-03-06T01:39:20.543Z,83.68
2023-03-06T01:41:22.046Z,91.75
2023-03-06T01:43:26.338Z,87.03
2023-03-06T01:45:27.732Z,76.18
2023-03-06T01:47:29.417Z,99.60
2023-03-06T01:49:39.029Z,84.20
2023-03-06T01:52:03.689Z,85.95
2023-03-06T01:54:11.383Z,78.72
2023-03-06T01:56:13.900Z,90.78
2023-03-06T01:58:18.459Z,86.93
2023-03-06T02:00:25.226Z,84.38
2023-03-06T02:02:26.878Z,80.15
2023-03-06T02:04:29.567Z,78.70
2023-03-06T02:06:30.996Z,85.90
2023-03-06T02:08:33.370Z,87.63
2023-03-06T02:10:34.892Z,73.00
2023-03-06T02:12:36.408Z,69.90
2023-03-06T02:14:39.516Z,68.40
2023-03-06T02:16:42.252Z,75.90
2023-03-06T02:18:45.617Z,64.72
2023-03-06T02:20:51.922Z,78.32
2023-03-06T02:23:12.221Z,70.32
2023-03-06T02:25:32.452Z,71.40
2023-03-06T02:27:34.290Z,73.28
2023-03-06T02:29:35.695Z,70.20
2023-03-06T02:31:37.123Z,70.28
2023-03-06T02:33:38.593Z,66.90
2023-03-06T02:35:43.576Z,74.40
2023-03-06T02:37:45.524Z,80.25
2023-03-06T02:39:52.073Z,77.13
2023-03-06T02:41:53.966Z,77.70
2023-03-06T02:43:55.406Z,89.90
2023-03-06T02:45:57.465Z,90.05
2023-03-06T02:47:58.984Z,76.22
2023-03-06T02:50:00.400Z,85.07
2023-03-06T02:52:01.902Z,79.40
2023-03-06T02:54:03.492Z,84.10
2023-03-06T02:56:05.147Z,78.10
2023-03-06T02:58:07.049Z,88.35
2023-03-06T03:00:09.766Z,84.25
2023-03-06T03:02:11.200Z,87.38
2023-03-06T03:04:12.868Z,89.18
2023-03-06T03:06:14.404Z,110.25
2023-03-06T03:08:15.839Z,105.20
2023-03-06T03:10:17.308Z,118.78
2023-03-06T03:12:18.798Z,110.10
2023-03-06T03:14:20.286Z,103.22
2023-03-06T03:16:21.820Z,100.47
2023-03-06T03:18:23.337Z,89.43
2023-03-06T03:20:24.796Z,86.07
2023-03-06T03:22:26.451Z,95.82
2023-03-06T03:24:28.046Z,96.05
2023-03-06T03:26:29.524Z,98.18
2023-03-06T03:28:31.196Z,97.65
2023-03-06T03:30:33.194Z,98.72
2023-03-06T03:32:34.672Z,89.43
2023-03-06T03:34:36.238Z,111.97
2023-03-06T03:36:37.708Z,136.65
2023-03-06T03:38:39.155Z,125.00
2023-03-06T03:40:40.823Z,136.88
2023-03-06T03:42:42.332Z,116.60
2023-03-06T03:44:43.875Z,121.82
2023-03-06T03:46:45.458Z,124.63
2023-03-06T03:48:47.225Z,127.82
2023-03-06T03:50:48.657Z,133.68
2023-03-06T03:52:50.086Z,142.88
2023-03-06T03:54:51.480Z,132.02
2023-03-06T03:56:52.864Z,120.25
2023-03-06T03:58:54.511Z,130.15
2023-03-06T04:00:56.131Z,127.15
2023-03-06T04:02:57.542Z,108.85
2023-03-06T04:04:59.152Z,113.78
2023-03-06T04:07:00.599Z,119.10
2023-03-06T04:09:02.022Z,119.00
2023-03-06T04:11:03.746Z,115.32
2023-03-06T04:13:07.514Z,111.40
2023-03-06T04:15:10.557Z,114.65
2023-03-06T04:17:12.029Z,108.93
2023-03-06T04:19:13.527Z,107.32
2023-03-06T04:21:14.939Z,102.13
2023-03-06T04:23:17.653Z,98.45
2023-03-06T04:25:19.053Z,95.15
2023-03-06T04:27:20.498Z,107.78
2023-03-06T04:29:22.014Z,94.55
2023-03-06T04:31:23.555Z,99.03
2023-03-06T04:33:25.031Z,104.53
2023-03-06T04:35:26.917Z,101.82
2023-03-06T04:37:28.370Z,93.43
2023-03-06T04:39:29.772Z,93.85
2023-03-06T04:41:31.336Z,97.43
2023-03-06T04:43:33.088Z,98.43
2023-03-06T04:45:35.070Z,96.30
2023-03-06T04:47:37.068Z,96.10
2023-03-06T04:49:38.601Z,89.55
2023-03-06T04:51:40.004Z,90.63
2023-03-06T04:53:41.555Z,92.88
2023-03-06T04:55:42.975Z,90.38
2023-03-06T04:57:46.801Z,86.05
2023-03-06T04:59:48.556Z,88.15
2023-03-06T05:01:50.012Z,100.53
2023-03-06T05:03:51.455Z,96.13
2023-03-06T05:05:52.905Z,98.20
2023-03-06T05:07:54.580Z,106.65
2023-03-06T05:09:56.196Z,96.25
2023-03-06T05:11:57.578Z,105.07
2023-03-06T05:13:58.973Z,100.45
2023-03-06T05:16:05.321Z,107.22
2023-03-06T05:18:06.864Z,102.22
2023-03-06T05:20:10.563Z,105.30
2023-03-06T05:22:12.067Z,96.85
2023-03-06T05:24:13.492Z,98.32
2023-03-06T05:26:15.548Z,96.10
2023-03-06T05:28:16.963Z,99.88
2023-03-06T05:30:18.454Z,96.80
2023-03-06T05:32:20.215Z,109.80
2023-03-06T05:34:21.696Z,99.35
2023-03-06T05:36:23.175Z,104.28
2023-03-06T05:38:24.721Z,110.88
2023-03-06T05:40:26.441Z,130.85
2023-03-06T05:42:30.734Z,158.63
2023-03-06T05:44:33.195Z,210.20
2023-03-06T05:46:34.567Z,175.80
2023-03-06T05:48:36.589Z,195.23
2023-03-06T05:50:38.556Z,184.55
2023-03-06T05:52:40.211Z,168.15
2023-03-06T05:54:41.600Z,144.13
2023-03-06T05:56:43.242Z,112.35
2023-03-06T05:58:44.740Z,95.50
2023-03-06T06:00:46.128Z,69.13
2023-03-06T06:02:47.649Z,63.65
2023-03-06T06:04:49.093Z,61.25
2023-03-06T06:06:59.320Z,60.03
2023-03-06T06:09:00.720Z,58.47
2023-03-06T06:11:04.911Z,54.60
2023-03-06T06:13:06.840Z,55.03
2023-03-06T06:15:08.739Z,53.30
2023-03-06T06:17:10.216Z,57.60
2023-03-06T06:19:11.817Z,75.10
2023-03-06T06:21:14.420Z,76.68
2023-03-06T06:23:15.872Z,82.75
2023-03-06T06:25:17.407Z,88.22
2023-03-06T06:27:18.821Z,88.63
2023-03-06T06:29:20.952Z,83.07
2023-03-06T06:31:22.507Z,71.82
2023-03-06T06:33:24.257Z,71.03
2023-03-06T06:35:26.626Z,65.13
2023-03-06T06:37:28.052Z,65.20
2023-03-06T06:39:29.805Z,56.40
2023-03-06T06:41:50.723Z,57.95
2023-03-06T06:43:53.092Z,62.50
2023-03-06T06:46:08.885Z,53.90
2023-03-06T06:48:17.540Z,55.00
2023-03-06T06:50:19.548Z,54.67
2023-03-06T06:52:22.052Z,62.97
2023-03-06T06:54:23.689Z,88.00
2023-03-06T06:56:25.154Z,118.75
2023-03-06T06:58:26.756Z,141.68
2023-03-06T07:00:28.418Z,178.32
2023-03-06T07:02:29.867Z,88.20
2023-03-06T07:04:31.379Z,78.65
2023-03-06T07:06:32.825Z,79.93
2023-03-06T07:08:35.218Z,68.78
2023-03-06T07:10:37.698Z,68.93
2023-03-06T07:12:39.541Z,65.80
2023-03-06T07:14:40.946Z,74.43
2023-03-06T07:16:42.466Z,75.45
2023-03-06T07:18:44.495Z,85.80
2023-03-06T07:20:45.875Z,75.43
2023-03-06T07:22:51.377Z,79.57
2023-03-06T07:24:53.180Z,62.20
2023-03-06T07:26:54.818Z,60.47
2023-03-06T07:28:56.461Z,58.80
2023-03-06T07:30:57.960Z,59.28
2023-03-06T07:32:59.840Z,72.75
2023-03-06T07:35:18.973Z,70.57
2023-03-06T07:37:21.412Z,67.00
2023-03-06T07:39:22.865Z,61.50
2023-03-06T07:41:24.304Z,64.32
2023-03-06T07:43:25.693Z,63.25
2023-03-06T07:45:27.319Z,71.18
2023-03-06T07:47:28.745Z,64.57
2023-03-06T07:49:30.172Z,65.75
2023-03-06T07:51:31.642Z,62.28
2023-03-06T07:53:34.128Z,66.32
2023-03-06T07:55:35.550Z,65.88
2023-03-06T07:57:38.039Z,64.90
2023-03-06T07:59:39.648Z,62.63
2023-03-06T08:01:41.068Z,67.32
2023-03-06T08:03:42.796Z,66.10
2023-03-06T08:05:44.870Z,68.82
2023-03-06T08:07:46.277Z,75.10
2023-03-06T08:09:48.627Z,84.97
2023-03-06T08:11:50.097Z,80.72
2023-03-06T08:13:52.248Z,90.72
2023-03-06T08:15:54.619Z,95.50
2023-03-06T08:17:56.125Z,99.55
2023-03-06T08:19:57.643Z,81.68
2023-03-06T08:21:59.302Z,89.72
2023-03-06T08:24:00.901Z,77.63
2023-03-06T08:26:05.405Z,113.03
2023-03-06T08:28:06.914Z,87.07
2023-03-06T08:30:09.124Z,92.47
2023-03-06T08:32:11.912Z,84.88
2023-03-06T08:34:17.817Z,79.40
2023-03-06T08:36:19.478Z,93.60
2023-03-06T08:38:20.882Z,86.60
2023-03-06T08:40:22.362Z,89.35
2023-03-06T08:42:23.955Z,82.80
2023-03-06T08:44:25.372Z,86.70
2023-03-06T08:46:29.244Z,94.70
2023-03-06T08:48:30.962Z,85.43
2023-03-06T08:50:32.420Z,90.88
2023-03-06T08:52:33.919Z,93.75
2023-03-06T08:54:35.800Z,87.28
2023-03-06T08:56:37.271Z,94.15
2023-03-06T08:58:38.909Z,85.82
2023-03-06T09:00:40.603Z,81.90
2023-03-06T09:02:42.136Z,86.30
2023-03-06T09:04:43.624Z,105.32
2023-03-06T09:06:45.525Z,84.75
2023-03-06T09:08:46.897Z,79.55
2023-03-06T09:10:48.772Z,76.85
2023-03-06T09:12:53.144Z,79.60
2023-03-06T09:14:55.893Z,73.68
2023-03-06T09:16:57.518Z,75.85
2023-03-06T09:18:59.123Z,82.15
2023-03-06T09:21:00.984Z,67.60
2023-03-06T09:23:02.586Z,73.00
2023-03-06T09:25:05.769Z,60.72
2023-03-06T09:27:07.229Z,93.38
2023-03-06T09:29:08.875Z,74.97
2023-03-06T09:31:13.306Z,81.95
2023-03-06T09:33:15.278Z,75.97
2023-03-06T09:35:17.201Z,69.65
2023-03-06T09:37:19.197Z,68.82
2023-03-06T09:39:20.584Z,68.88
2023-03-06T09:41:24.808Z,78.82
2023-03-06T09:43:32.251Z,74.88
2023-03-06T09:45:36.931Z,66.22
2023-03-06T09:47:45.131Z,66.20
2023-03-06T09:50:04.785Z,72.40
2023-03-06T09:52:42.173Z,70.05
2023-03-06T09:54:55.516Z,76.85
2023-03-06T09:56:57.314Z,69.60
2023-03-06T09:59:22.865Z,60.88
2023-03-06T10:01:26.041Z,59.55
2023-03-06T10:03:48.521Z,64.80
2023-03-06T10:06:17.997Z,60.75
2023-03-06T10:08:22.371Z,61.75
2023-03-06T10:10:27.904Z,53.58
2023-03-06T10:12:35.206Z,61.13
2023-03-06T10:14:43.246Z,57.10
2023-03-06T10:16:44.877Z,57.10
2023-03-06T10:18:46.367Z,55.83
2023-03-06T10:20:58.309Z,64.35
2023-03-06T10:23:39.651Z,57.80
2023-03-06T10:26:03.454Z,52.78
2023-03-06T10:28:18.261Z,41.42
2023-03-06T10:30:37.786Z,42.88
2023-03-06T10:32:52.941Z,39.80
2023-03-06T10:34:59.291Z,33.33
2023-03-06T10:37:13.165Z,25.25
2023-03-06T10:39:21.275Z,34.13
2023-03-06T10:41:24.806Z,66.63
2023-03-06T10:43:26.481Z,27.70
2023-03-06T10:45:28.718Z,32.30
2023-03-06T10:47:33.106Z,31.25
2023-03-06T10:49:37.094Z,34.05
2023-03-06T10:51:38.705Z,40.22
2023-03-06T10:53:56.632Z,29.58
2023-03-06T10:56:01.750Z,34.17
2023-03-06T10:58:19.907Z,36.70
2023-03-06T11:00:30.397Z,40.45
2023-03-06T11:02:34.549Z,42.22
2023-03-06T11:04:36.966Z,36.72
2023-03-06T11:06:38.372Z,41.13
2023-03-06T11:08:41.919Z,48.47
2023-03-06T11:10:55.802Z,43.33
2023-03-06T11:13:05.770Z,42.78
2023-03-06T11:15:23.333Z,38.95
2023-03-06T11:17:30.259Z,35.75
2023-03-06T11:19:32.362Z,25.45
2023-03-06T11:21:35.730Z,31.85
2023-03-06T11:23:45.835Z,30.77
2023-03-06T11:25:56.436Z,26.77
2023-03-06T11:28:03.650Z,31.70
2023-03-06T11:30:35.045Z,30.63
2023-03-06T11:32:47.348Z,32.17
2023-03-06T11:34:57.409Z,38.00
2023-03-06T11:37:08.456Z,35.65
2023-03-06T11:39:28.143Z,31.20
2023-03-06T11:41:52.793Z,39.75
2023-03-06T11:44:17.299Z,36.45
2023-03-06T11:46:37.549Z,36.67
2023-03-06T11:48:48.359Z,40.55
2023-03-06T11:50:59.732Z,38.47
2023-03-06T11:53:04.348Z,36.78
2023-03-06T11:55:08.560Z,40.10
2023-03-06T11:57:17.863Z,45.45
2023-03-06T11:59:46.364Z,36.55
2023-03-06T12:02:27.692Z,36.10
2023-03-06T12:04:53.730Z,33.15
2023-03-06T12:07:19.482Z,39.17
2023-03-06T12:09:33.822Z,33.67
2023-03-06T12:12:11.919Z,36.40
2023-03-06T12:14:40.863Z,24.70
2023-03-06T12:17:04.243Z,22.45
2023-03-06T12:19:30.006Z,17.70
2023-03-06T12:21:46.468Z,17.70
2023-03-06T12:24:09.779Z,18.40
2023-03-06T12:26:36.231Z,16.15
2023-03-06T12:28:45.983Z,16.55
2023-03-06T12:31:02.661Z,20.98
2023-03-06T12:33:19.289Z,18.30
2023-03-06T12:35:44.638Z,19.75
2023-03-06T12:37:58.029Z,26.77
2023-03-06T12:40:40.832Z,22.27
2023-03-06T12:43:03.119Z,26.60
2023-03-06T12:45:30.412Z,38.58
2023-03-06T12:47:37.855Z,33.88
2023-03-06T12:49:43.622Z,32.05
2023-03-06T12:51:45.957Z,54.90
2023-03-06T12:53:49.761Z,26.50
2023-03-06T12:55:51.908Z,64.72
2023-03-06T12:57:53.642Z,41.00
2023-03-06T12:59:55.115Z,95.45
2023-03-06T13:02:11.820Z,58.13
2023-03-06T13:04:35.185Z,113.38
2023-03-06T13:06:50.835Z,52.17
2023-03-06T13:09:20.277Z,56.30
2023-03-06T13:11:56.220Z,51.63
2023-03-06T13:13:57.705Z,57.45
2023-03-06T13:16:12.344Z,30.98
2023-03-06T13:18:23.348Z,32.20
2023-03-06T13:20:35.138Z,32.15
2023-03-06T13:22:37.099Z,92.15
2023-03-06T13:24:38.611Z,36.97
2023-03-06T13:26:39.990Z,127.85
2023-03-06T13:28:43.266Z,49.28
2023-03-06T13:30:45.790Z,42.40
2023-03-06T13:32:48.556Z,55.80
2023-03-06T13:34:50.188Z,71.97
2023-03-06T13:36:51.949Z,61.97
2023-03-06T13:39:12.951Z,73.15
2023-03-06T13:41:20.697Z,39.97
2023-03-06T13:43:22.334Z,42.47
2023-03-06T13:45:34.382Z,50.08
2023-03-06T13:48:05.805Z,196.88
2023-03-06T13:50:12.952Z,63.28
2023-03-06T13:52:54.245Z,36.45
2023-03-06T13:55:03.619Z,40.00
2023-03-06T13:57:25.513Z,45.88
2023-03-06T14:00:08.093Z,105.57
2023-03-06T14:02:49.466Z,33.35
2023-03-06T14:04:57.510Z,30.77
2023-03-06T14:06:58.975Z,36.80
2023-03-06T14:09:03.813Z,77.75
2023-03-06T14:11:20.640Z,156.38
2023-03-06T14:13:35.110Z,62.90
2023-03-06T14:15:44.866Z,55.85
2023-03-06T14:18:14.615Z,52.15
2023-03-06T14:20:18.796Z,51.65
2023-03-06T14:22:24.674Z,55.80
2023-03-06T14:24:36.677Z,64.57
2023-03-06T14:26:45.420Z,47.83
2023-03-06T14:28:52.808Z,78.40
2023-03-06T14:30:55.790Z,259.63
2023-03-06T14:32:57.324Z,223.68
2023-03-06T14:34:58.888Z,108.72
2023-03-06T14:37:03.105Z,176.43
2023-03-06T14:39:28.662Z,96.45
2023-03-06T14:41:33.510Z,150.10
2023-03-06T14:43:34.938Z,130.75
2023-03-06T14:45:36.538Z,109.95
2023-03-06T14:47:38.212Z,112.18
2023-03-06T14:49:39.611Z,229.55
2023-03-06T14:51:44.235Z,76.07
2023-03-06T14:53:48.632Z,105.50
2023-03-06T14:56:00.004Z,83.32
2023-03-06T14:58:07.764Z,110.63
2023-03-06T15:00:18.114Z,170.75
2023-03-06T15:02:23.004Z,166.20
2023-03-06T15:04:44.960Z,178.15
2023-03-06T15:06:46.608Z,114.15
2023-03-06T15:09:02.688Z,91.70
2023-03-06T15:11:06.926Z,96.22
2023-03-06T15:13:21.134Z,232.80
2023-03-06T15:17:27.083Z,125.72
2023-03-06T15:19:28.490Z,96.25
2023-03-06T15:21:38.152Z,83.30
2023-03-06T15:23:42.450Z,100.07
2023-03-06T15:25:56.177Z,186.65
2023-03-06T15:28:03.368Z,604.85
2023-03-06T15:30:26.802Z,660.75
2023-03-06T15:32:32.651Z,67.37
2023-03-06T15:34:34.139Z,58.90
2023-03-06T15:36:43.497Z,53.67
2023-03-06T15:38:46.420Z,60.92
2023-03-06T15:40:59.330Z,107.50
2023-03-06T15:43:00.974Z,82.50
2023-03-06T15:45:16.789Z,60.17
2023-03-06T15:47:18.959Z,55.58
2023-03-06T15:49:20.445Z,59.42
2023-03-06T15:51:21.986Z,496.83
2023-03-06T15:53:23.611Z,268.33
2023-03-06T15:55:26.088Z,365.58
2023-03-06T15:57:28.177Z,452.50
2023-03-06T15:59:30.676Z,308.35
2023-03-06T16:01:32.207Z,221.15
2023-03-06T16:03:33.777Z,182.23
2023-03-06T16:05:35.291Z,156.68
2023-03-06T16:07:36.767Z,121.80
2023-03-06T16:09:38.313Z,125.10
2023-03-06T16:11:43.948Z,88.38
2023-03-06T16:13:46.137Z,63.05
2023-03-06T16:15:50.250Z,64.93
2023-03-06T16:17:51.723Z,69.82
2023-03-06T16:19:53.198Z,84.40
2023-03-06T16:21:56.178Z,106.47
2023-03-06T16:23:57.886Z,99.53
2023-03-06T16:25:59.455Z,92.53
2023-03-06T16:28:02.061Z,80.95
2023-03-06T16:30:04.725Z,83.90
2023-03-06T16:32:06.648Z,89.40
2023-03-06T16:34:08.075Z,71.78
2023-03-06T16:36:13.264Z,62.58
2023-03-06T16:38:14.862Z,64.93
2023-03-06T16:40:26.086Z,82.38
2023-03-06T16:42:27.828Z,66.88
2023-03-06T16:44:29.298Z,68.72
2023-03-06T16:46:30.831Z,62.25
2023-03-06T16:48:32.711Z,82.15
2023-03-06T16:50:38.767Z,98.20
2023-03-06T16:52:40.151Z,86.50
2023-03-06T16:54:43.622Z,65.28
2023-03-06T16:56:46.407Z,66.18
2023-03-06T16:58:48.249Z,70.47
2023-03-06T17:00:49.865Z,66.15
2023-03-06T17:02:52.570Z,67.63
2023-03-06T17:04:54.008Z,82.00
2023-03-06T17:06:55.512Z,84.63
2023-03-06T17:08:57.166Z,73.13
2023-03-06T17:10:58.594Z,95.85
2023-03-06T17:13:00.317Z,98.85
2023-03-06T17:15:02.534Z,152.32
2023-03-06T17:17:04.227Z,142.25
2023-03-06T17:19:06.459Z,198.88
2023-03-06T17:21:08.627Z,203.70
2023-03-06T17:23:10.027Z,344.10
2023-03-06T17:25:11.645Z,420.40
2023-03-06T17:27:13.099Z,359.33
2023-03-06T17:29:15.103Z,319.90
2023-03-06T17:31:19.247Z,315.85
2023-03-06T17:33:20.767Z,285.10
2023-03-06T17:35:22.191Z,141.50
2023-03-06T17:37:23.851Z,119.53
2023-03-06T17:39:25.472Z,109.40
2023-03-06T17:41:27.086Z,109.70
2023-03-06T17:43:28.708Z,142.23
2023-03-06T17:45:30.195Z,99.45
2023-03-06T17:47:31.634Z,90.55
2023-03-06T17:49:33.227Z,72.60
2023-03-06T17:51:34.825Z,72.30
2023-03-06T17:53:37.565Z,123.10
2023-03-06T17:55:39.135Z,206.60
2023-03-06T17:57:40.604Z,197.80
2023-03-06T17:59:42.012Z,200.65
2023-03-06T18:01:43.535Z,162.27
2023-03-06T18:03:47.369Z,79.47
2023-03-06T18:05:59.061Z,85.40
2023-03-06T18:08:00.614Z,83.65
2023-03-06T18:10:02.205Z,89.13
2023-03-06T18:12:03.892Z,92.38
2023-03-06T18:14:05.655Z,112.30
2023-03-06T18:16:09.125Z,126.60
2023-03-06T18:18:10.549Z,176.57
2023-03-06T18:20:12.438Z,170.82
2023-03-06T18:22:14.132Z,317.20
2023-03-06T18:24:15.517Z,217.07
2023-03-06T18:26:20.225Z,133.80
2023-03-06T18:28:21.834Z,140.13
2023-03-06T18:30:23.420Z,121.95
2023-03-06T18:32:25.151Z,122.07
2023-03-06T18:34:26.710Z,111.90
2023-03-06T18:36:31.390Z,119.53
2023-03-06T18:38:33.161Z,121.57
2023-03-06T18:40:34.627Z,112.43
2023-03-06T18:42:36.019Z,97.28
2023-03-06T18:44:37.651Z,89.72
2023-03-06T18:46:39.182Z,93.28
2023-03-06T18:48:40.612Z,94.60
2023-03-06T18:50:42.070Z,94.72
2023-03-06T18:52:43.988Z,123.53
2023-03-06T18:54:45.589Z,107.03
2023-03-06T18:56:46.996Z,347.65
2023-03-06T18:58:49.026Z,107.47
2023-03-06T19:00:50.680Z,100.82
2023-03-06T19:02:52.147Z,218.50
2023-03-06T19:04:53.740Z,182.82
2023-03-06T19:06:55.418Z,216.07
2023-03-06T19:08:57.352Z,139.82
2023-03-06T19:11:05.995Z,208.80
2023-03-06T19:13:08.625Z,173.88
2023-03-06T19:15:10.381Z,130.88
2023-03-06T19:17:11.979Z,286.27
2023-03-06T19:19:13.664Z,441.98
2023-03-06T19:21:18.337Z,114.97
2023-03-06T19:23:20.615Z,267.45
2023-03-06T19:25:22.075Z,371.55
2023-03-06T19:27:23.491Z,156.07
2023-03-06T19:29:25.083Z,132.80
2023-03-06T19:31:27.780Z,256.65
2023-03-06T19:33:29.253Z,138.38
2023-03-06T19:35:30.823Z,149.65
2023-03-06T19:37:32.616Z,129.82
2023-03-06T19:39:34.010Z,147.93
2023-03-06T19:41:35.561Z,162.52
2023-03-06T19:43:37.531Z,113.20
2023-03-06T19:45:42.488Z,112.25
2023-03-06T19:47:44.062Z,130.45
2023-03-06T19:49:45.622Z,131.40
2023-03-06T19:51:47.095Z,171.52
2023-03-06T19:53:48.602Z,185.77
2023-03-06T19:55:50.075Z,153.45
2023-03-06T19:57:53.013Z,197.57
2023-03-06T19:59:54.508Z,152.18
2023-03-06T20:01:56.034Z,170.05
2023-03-06T20:03:58.359Z,149.55
2023-03-06T20:06:03.587Z,164.48
2023-03-06T20:08:05.216Z,226.15
2023-03-06T20:10:07.108Z,160.82
2023-03-06T20:12:08.784Z,187.27
2023-03-06T20:14:11.683Z,307.38
2023-03-06T20:16:13.364Z,238.52
2023-03-06T20:18:15.187Z,137.90
2023-03-06T20:20:16.681Z,119.95
2023-03-06T20:22:18.088Z,168.55
2023-03-06T20:24:19.684Z,156.63
2023-03-06T20:26:21.262Z,153.25
2023-03-06T20:28:23.204Z,154.18
2023-03-06T20:30:26.436Z,155.63
2023-03-06T20:32:31.053Z,131.00
2023-03-06T20:34:32.495Z,124.45
2023-03-06T20:36:39.790Z,124.60
2023-03-06T20:38:41.287Z,123.80
2023-03-06T20:40:43.448Z,128.15
2023-03-06T20:42:44.977Z,122.22
2023-03-06T20:44:46.405Z,135.30
2023-03-06T20:46:47.889Z,131.30
2023-03-06T20:48:51.323Z,122.78
2023-03-06T20:51:03.135Z,126.75
2023-03-06T20:53:04.555Z,145.25
2023-03-06T20:55:06.666Z,136.27
2023-03-06T20:57:08.346Z,141.50
2023-03-06T20:59:11.847Z,127.97
2023-03-06T21:03:28.487Z,121.13
2023-03-06T21:05:29.868Z,130.35
2023-03-06T21:07:31.234Z,158.80
2023-03-06T21:09:32.742Z,154.98
2023-03-06T21:11:35.197Z,137.30
2023-03-06T21:13:36.780Z,139.13
2023-03-06T21:15:39.674Z,132.93
2023-03-06T21:17:41.066Z,123.03
2023-03-06T21:19:42.628Z,129.73
2023-03-06T21:21:44.301Z,129.05
2023-03-06T21:23:46.896Z,142.95
2023-03-06T21:25:50.260Z,130.48
2023-03-06T21:27:51.884Z,119.15
2023-03-06T21:29:53.319Z,133.70
2023-03-06T21:31:54.996Z,123.13
2023-03-06T21:33:57.221Z,122.30
2023-03-06T21:35:58.659Z,128.57
2023-03-06T21:38:00.264Z,125.90
2023-03-06T21:40:02.036Z,128.55
2023-03-06T21:42:03.458Z,157.43
2023-03-06T21:44:06.249Z,192.98
2023-03-06T21:46:07.879Z,193.50
2023-03-06T21:48:09.723Z,178.00
2023-03-06T21:50:11.953Z,162.52
2023-03-06T21:52:13.542Z,206.52
2023-03-06T21:54:14.941Z,186.60
2023-03-06T21:56:18.815Z,191.93
2023-03-06T21:58:20.437Z,194.48
2023-03-06T22:00:22.192Z,187.65
2023-03-06T22:02:23.848Z,157.18
2023-03-06T22:04:25.520Z,166.93
2023-03-06T22:06:28.961Z,180.85
2023-03-06T22:08:30.423Z,162.30
2023-03-06T22:10:31.887Z,224.95
2023-03-06T22:12:34.110Z,191.35
2023-03-06T22:14:35.630Z,255.23
2023-03-06T22:16:37.126Z,261.80
2023-03-06T22:18:39.125Z,171.20
2023-03-06T22:20:40.694Z,186.52
2023-03-06T22:22:42.266Z,193.70
2023-03-06T22:24:43.676Z,150.82
2023-03-06T22:26:45.518Z,141.55
2023-03-06T22:28:47.012Z,173.18
2023-03-06T22:30:48.408Z,134.63
2023-03-06T22:32:52.495Z,153.50
2023-03-06T22:34:53.994Z,158.40
2023-03-06T22:36:55.508Z,203.73
2023-03-06T22:38:59.992Z,232.57
2023-03-06T22:41:01.663Z,216.70
2023-03-06T22:43:03.081Z,153.85
2023-03-06T22:45:04.964Z,179.15
2023-03-06T22:47:06.537Z,234.80
2023-03-06T22:49:10.628Z,288.52
2023-03-06T22:51:15.087Z,271.70
2023-03-06T22:53:16.681Z,331.10
2023-03-06T22:55:18.065Z,308.98
2023-03-06T22:57:19.595Z,246.15
2023-03-06T22:59:21.092Z,290.73
2023-03-06T23:01:34.001Z,340.63
2023-03-06T23:03:37.554Z,325.38
2023-03-06T23:07:43.287Z,351.00
2023-03-06T23:09:44.908Z,335.17
2023-03-06T23:11:46.928Z,260.02
2023-03-06T23:13:48.416Z,198.75
2023-03-06T23:15:50.065Z,175.50
2023-03-06T23:17:51.602Z,168.52
2023-03-06T23:19:53.090Z,172.63
2023-03-06T23:21:54.654Z,144.90
2023-03-06T23:23:56.566Z,135.65
2023-03-06T23:26:00.874Z,131.13
2023-03-06T23:28:03.056Z,245.85
2023-03-06T23:30:07.879Z,223.70
2023-03-06T23:32:09.353Z,181.43
2023-03-06T23:34:10.900Z,188.60
2023-03-06T23:36:14.490Z,220.07
2023-03-06T23:40:17.574Z,161.10
2023-03-06T23:42:19.220Z,141.93
2023-03-06T23:44:20.607Z,111.30
2023-03-06T23:46:22.655Z,113.57
2023-03-06T23:48:24.494Z,119.78
2023-03-06T23:50:25.924Z,115.20
2023-03-06T23:52:27.318Z,120.22
2023-03-06T23:54:28.802Z,126.68
2023-03-06T23:56:30.224Z,110.93
2023-03-06T23:58:32.547Z,112.30
